sensor_id;sensor_type;location;lat;lon;timestamp;P1;P2;P0
75946;PMS5003;64628;50.104;14.614;2023-04-20T00:01:56;41;37;
75946;PMS5003;64628;50.104;14.614;2023-04-20T00:04:22;47;41;
75946;PMS5003;64628;50.104;14.614;2023-04-20T00:06:47;65;56;
75946;PMS5003;64628;50.104;14.614;2023-04-20T00:09:13;49;47;
75946;PMS5003;64628;50.104;14.614;2023-04-20T00:11:38;62;53;
75946;PMS5003;64628;50.104;14.614;2023-04-20T00:14:04;56;52;
75946;PMS5003;64628;50.104;14.614;2023-04-20T00:16:29;52;49;
75946;PMS5003;64628;50.104;14.614;2023-04-20T00:18:55;43;41;
75946;PMS5003;64628;50.104;14.614;2023-04-20T00:21:27;51;45;
75946;PMS5003;64628;50.104;14.614;2023-04-20T00:23:46;83;76;
75946;PMS5003;64628;50.104;14.614;2023-04-20T00:26:12;65;57;
75946;PMS5003;64628;50.104;14.614;2023-04-20T00:28:42;68;61;
75946;PMS5003;64628;50.104;14.614;2023-04-20T00:31:02;50;45;
75946;PMS5003;64628;50.104;14.614;2023-04-20T00:33:32;71;64;
75946;PMS5003;64628;50.104;14.614;2023-04-20T00:35:53;58;51;
75946;PMS5003;64628;50.104;14.614;2023-04-20T00:38:19;59;52;
75946;PMS5003;64628;50.104;14.614;2023-04-20T00:40:49;68;67;
75946;PMS5003;64628;50.104;14.614;2023-04-20T00:43:09;50;48;
75946;PMS5003;64628;50.104;14.614;2023-04-20T00:45:35;80;71;
75946;PMS5003;64628;50.104;14.614;2023-04-20T00:48:00;60;54;
75946;PMS5003;64628;50.104;14.614;2023-04-20T00:50:26;59;55;
75946;PMS5003;64628;50.104;14.614;2023-04-20T00:52:51;69;64;
75946;PMS5003;64628;50.104;14.614;2023-04-20T00:55:18;66;60;
75946;PMS5003;64628;50.104;14.614;2023-04-20T00:57:43;68;67;
75946;PMS5003;64628;50.104;14.614;2023-04-20T01:00:14;80;74;
75946;PMS5003;64628;50.104;14.614;2023-04-20T01:02:34;59;55;
75946;PMS5003;64628;50.104;14.614;2023-04-20T01:04:59;66;59;
75946;PMS5003;64628;50.104;14.614;2023-04-20T01:07:26;60;60;
75946;PMS5003;64628;50.104;14.614;2023-04-20T01:09:55;67;63;
75946;PMS5003;64628;50.104;14.614;2023-04-20T01:12:16;64;56;
75946;PMS5003;64628;50.104;14.614;2023-04-20T01:14:42;62;60;
75946;PMS5003;64628;50.104;14.614;2023-04-20T01:17:07;78;72;
75946;PMS5003;64628;50.104;14.614;2023-04-20T01:19:38;61;55;
75946;PMS5003;64628;50.104;14.614;2023-04-20T01:22:04;60;58;
75946;PMS5003;64628;50.104;14.614;2023-04-20T01:24:24;71;62;
75946;PMS5003;64628;50.104;14.614;2023-04-20T01:26:50;58;58;
75946;PMS5003;64628;50.104;14.614;2023-04-20T01:29:16;70;64;
75946;PMS5003;64628;50.104;14.614;2023-04-20T01:31:41;67;56;
75946;PMS5003;64628;50.104;14.614;2023-04-20T01:34:13;76;72;
75946;PMS5003;64628;50.104;14.614;2023-04-20T01:36:33;71;68;
75946;PMS5003;64628;50.104;14.614;2023-04-20T01:38:58;80;75;
75946;PMS5003;64628;50.104;14.614;2023-04-20T01:41:24;78;74;
75946;PMS5003;64628;50.104;14.614;2023-04-20T01:43:49;99;92;
75946;PMS5003;64628;50.104;14.614;2023-04-20T01:46:14;93;89;
75946;PMS5003;64628;50.104;14.614;2023-04-20T01:48:39;103;97;
75946;PMS5003;64628;50.104;14.614;2023-04-20T01:51:05;114;110;
75946;PMS5003;64628;50.104;14.614;2023-04-20T01:53:30;145;140;
75946;PMS5003;64628;50.104;14.614;2023-04-20T01:56:00;136;127;
75946;PMS5003;64628;50.104;14.614;2023-04-20T01:58:20;158;152;
75946;PMS5003;64628;50.104;14.614;2023-04-20T02:00:46;159;151;
75946;PMS5003;64628;50.104;14.614;2023-04-20T02:03:11;144;140;
75946;PMS5003;64628;50.104;14.614;2023-04-20T02:05:36;167;159;
75946;PMS5003;64628;50.104;14.614;2023-04-20T02:08:02;155;150;
75946;PMS5003;64628;50.104;14.614;2023-04-20T02:10:33;167;158;
75946;PMS5003;64628;50.104;14.614;2023-04-20T02:12:53;148;146;
75946;PMS5003;64628;50.104;14.614;2023-04-20T02:15:18;138;132;
75946;PMS5003;64628;50.104;14.614;2023-04-20T02:17:43;151;145;
75946;PMS5003;64628;50.104;14.614;2023-04-20T02:20:09;122;117;
75946;PMS5003;64628;50.104;14.614;2023-04-20T02:22:40;99;98;
75946;PMS5003;64628;50.104;14.614;2023-04-20T02:24:59;84;78;
75946;PMS5003;64628;50.104;14.614;2023-04-20T02:27:25;93;88;
75946;PMS5003;64628;50.104;14.614;2023-04-20T02:29:50;87;79;
75946;PMS5003;64628;50.104;14.614;2023-04-20T02:32:15;81;74;
75946;PMS5003;64628;50.104;14.614;2023-04-20T02:34:41;75;70;
75946;PMS5003;64628;50.104;14.614;2023-04-20T02:37:06;66;59;
75946;PMS5003;64628;50.104;14.614;2023-04-20T02:39:32;67;63;
75946;PMS5003;64628;50.104;14.614;2023-04-20T02:42:02;56;51;
75946;PMS5003;64628;50.104;14.614;2023-04-20T02:44:24;71;65;
75946;PMS5003;64628;50.104;14.614;2023-04-20T02:46:49;68;59;
75946;PMS5003;64628;50.104;14.614;2023-04-20T02:49:14;67;60;
75946;PMS5003;64628;50.104;14.614;2023-04-20T02:51:40;75;67;
75946;PMS5003;64628;50.104;14.614;2023-04-20T02:54:06;56;55;
75946;PMS5003;64628;50.104;14.614;2023-04-20T02:56:31;61;51;
75946;PMS5003;64628;50.104;14.614;2023-04-20T02:58:56;67;62;
75946;PMS5003;64628;50.104;14.614;2023-04-20T03:01:22;106;93;
75946;PMS5003;64628;50.104;14.614;2023-04-20T03:03:47;68;66;
75946;PMS5003;64628;50.104;14.614;2023-04-20T03:06:12;70;64;
75946;PMS5003;64628;50.104;14.614;2023-04-20T03:08:38;56;51;
75946;PMS5003;64628;50.104;14.614;2023-04-20T03:11:03;61;51;
75946;PMS5003;64628;50.104;14.614;2023-04-20T03:13:29;65;61;
75946;PMS5003;64628;50.104;14.614;2023-04-20T03:15:54;62;56;
75946;PMS5003;64628;50.104;14.614;2023-04-20T03:18:19;52;47;
75946;PMS5003;64628;50.104;14.614;2023-04-20T03:20:45;69;58;
75946;PMS5003;64628;50.104;14.614;2023-04-20T03:23:14;52;47;
75946;PMS5003;64628;50.104;14.614;2023-04-20T03:25:37;60;48;
75946;PMS5003;64628;50.104;14.614;2023-04-20T03:28:01;46;41;
75946;PMS5003;64628;50.104;14.614;2023-04-20T03:30:27;50;44;
75946;PMS5003;64628;50.104;14.614;2023-04-20T03:32:52;45;41;
75946;PMS5003;64628;50.104;14.614;2023-04-20T03:35:17;61;54;
75946;PMS5003;64628;50.104;14.614;2023-04-20T03:37:42;40;39;
75946;PMS5003;64628;50.104;14.614;2023-04-20T03:40:08;39;33;
75946;PMS5003;64628;50.104;14.614;2023-04-20T03:42:33;38;33;
75946;PMS5003;64628;50.104;14.614;2023-04-20T03:44:59;47;39;
75946;PMS5003;64628;50.104;14.614;2023-04-20T03:47:29;48;39;
75946;PMS5003;64628;50.104;14.614;2023-04-20T03:49:50;46;37;
75946;PMS5003;64628;50.104;14.614;2023-04-20T03:52:15;49;42;
75946;PMS5003;64628;50.104;14.614;2023-04-20T03:54:40;53;40;
75946;PMS5003;64628;50.104;14.614;2023-04-20T03:57:05;48;41;
75946;PMS5003;64628;50.104;14.614;2023-04-20T03:59:31;54;45;
75946;PMS5003;64628;50.104;14.614;2023-04-20T04:01:57;51;44;
75946;PMS5003;64628;50.104;14.614;2023-04-20T04:04:22;55;44;
75946;PMS5003;64628;50.104;14.614;2023-04-20T04:06:47;46;38;
75946;PMS5003;64628;50.104;14.614;2023-04-20T04:09:12;50;46;
75946;PMS5003;64628;50.104;14.614;2023-04-20T04:11:38;47;42;
75946;PMS5003;64628;50.104;14.614;2023-04-20T04:14:04;47;38;
75946;PMS5003;64628;50.104;14.614;2023-04-20T04:16:37;46;40;
75946;PMS5003;64628;50.104;14.614;2023-04-20T04:18:54;50;39;
75946;PMS5003;64628;50.104;14.614;2023-04-20T04:21:19;38;36;
75946;PMS5003;64628;50.104;14.614;2023-04-20T04:23:45;50;42;
75946;PMS5003;64628;50.104;14.614;2023-04-20T04:26:10;47;38;
75946;PMS5003;64628;50.104;14.614;2023-04-20T04:28:35;46;37;
75946;PMS5003;64628;50.104;14.614;2023-04-20T04:31:01;50;43;
75946;PMS5003;64628;50.104;14.614;2023-04-20T04:33:26;48;38;
75946;PMS5003;64628;50.104;14.614;2023-04-20T04:35:51;53;41;
75946;PMS5003;64628;50.104;14.614;2023-04-20T04:38:17;43;41;
75946;PMS5003;64628;50.104;14.614;2023-04-20T04:40:42;47;39;
75946;PMS5003;64628;50.104;14.614;2023-04-20T04:43:09;46;44;
75946;PMS5003;64628;50.104;14.614;2023-04-20T04:45:36;36;33;
75946;PMS5003;64628;50.104;14.614;2023-04-20T04:48:00;44;37;
75946;PMS5003;64628;50.104;14.614;2023-04-20T04:50:24;46;39;
75946;PMS5003;64628;50.104;14.614;2023-04-20T04:52:50;44;36;
75946;PMS5003;64628;50.104;14.614;2023-04-20T04:55:15;38;36;
75946;PMS5003;64628;50.104;14.614;2023-04-20T04:57:40;36;33;
75946;PMS5003;64628;50.104;14.614;2023-04-20T05:00:06;44;39;
75946;PMS5003;64628;50.104;14.614;2023-04-20T05:02:31;49;40;
75946;PMS5003;64628;50.104;14.614;2023-04-20T05:04:56;38;35;
75946;PMS5003;64628;50.104;14.614;2023-04-20T05:07:21;44;35;
75946;PMS5003;64628;50.104;14.614;2023-04-20T05:09:48;54;44;
75946;PMS5003;64628;50.104;14.614;2023-04-20T05:12:12;46;39;
75946;PMS5003;64628;50.104;14.614;2023-04-20T05:14:37;48;41;
75946;PMS5003;64628;50.104;14.614;2023-04-20T05:17:03;41;35;
75946;PMS5003;64628;50.104;14.614;2023-04-20T05:21:53;44;38;
75946;PMS5003;64628;50.104;14.614;2023-04-20T05:24:19;39;32;
75946;PMS5003;64628;50.104;14.614;2023-04-20T05:26:44;37;30;
75946;PMS5003;64628;50.104;14.614;2023-04-20T05:29:10;48;40;
75946;PMS5003;64628;50.104;14.614;2023-04-20T05:31:41;38;36;
75946;PMS5003;64628;50.104;14.614;2023-04-20T05:34:01;30;30;
75946;PMS5003;64628;50.104;14.614;2023-04-20T05:36:26;41;39;
75946;PMS5003;64628;50.104;14.614;2023-04-20T05:38:57;39;30;
75946;PMS5003;64628;50.104;14.614;2023-04-20T05:41:17;32;31;
75946;PMS5003;64628;50.104;14.614;2023-04-20T05:43:43;33;31;
75946;PMS5003;64628;50.104;14.614;2023-04-20T05:46:08;41;31;
75946;PMS5003;64628;50.104;14.614;2023-04-20T05:48:33;35;35;
75946;PMS5003;64628;50.104;14.614;2023-04-20T05:50:58;41;35;
75946;PMS5003;64628;50.104;14.614;2023-04-20T05:53:26;37;35;
75946;PMS5003;64628;50.104;14.614;2023-04-20T05:55:49;38;35;
75946;PMS5003;64628;50.104;14.614;2023-04-20T05:58:15;35;32;
75946;PMS5003;64628;50.104;14.614;2023-04-20T06:00:40;37;32;
75946;PMS5003;64628;50.104;14.614;2023-04-20T06:03:12;43;33;
75946;PMS5003;64628;50.104;14.614;2023-04-20T06:05:31;37;33;
75946;PMS5003;64628;50.104;14.614;2023-04-20T06:07:56;38;35;
75946;PMS5003;64628;50.104;14.614;2023-04-20T06:10:22;43;36;
75946;PMS5003;64628;50.104;14.614;2023-04-20T06:12:48;36;32;
75946;PMS5003;64628;50.104;14.614;2023-04-20T06:15:13;39;36;
75946;PMS5003;64628;50.104;14.614;2023-04-20T06:17:43;31;31;
75946;PMS5003;64628;50.104;14.614;2023-04-20T06:20:05;38;28;
75946;PMS5003;64628;50.104;14.614;2023-04-20T06:22:29;29;24;
75946;PMS5003;64628;50.104;14.614;2023-04-20T06:25:05;28;27;
75946;PMS5003;64628;50.104;14.614;2023-04-20T06:27:20;29;28;
75946;PMS5003;64628;50.104;14.614;2023-04-20T06:29:51;32;28;
75946;PMS5003;64628;50.104;14.614;2023-04-20T06:32:11;38;32;
75946;PMS5003;64628;50.104;14.614;2023-04-20T06:34:36;33;28;
75946;PMS5003;64628;50.104;14.614;2023-04-20T06:37:04;27;27;
75946;PMS5003;64628;50.104;14.614;2023-04-20T06:39:27;36;33;
75946;PMS5003;64628;50.104;14.614;2023-04-20T06:41:52;41;31;
75946;PMS5003;64628;50.104;14.614;2023-04-20T06:44:19;44;38;
75946;PMS5003;64628;50.104;14.614;2023-04-20T06:46:43;38;35;
75946;PMS5003;64628;50.104;14.614;2023-04-20T06:49:08;40;29;
75946;PMS5003;64628;50.104;14.614;2023-04-20T06:51:34;39;35;
75946;PMS5003;64628;50.104;14.614;2023-04-20T06:53:59;41;38;
75946;PMS5003;64628;50.104;14.614;2023-04-20T06:56:24;40;33;
75946;PMS5003;64628;50.104;14.614;2023-04-20T06:58:49;46;38;
75946;PMS5003;64628;50.104;14.614;2023-04-20T07:01:15;35;31;
75946;PMS5003;64628;50.104;14.614;2023-04-20T07:03:41;46;40;
75946;PMS5003;64628;50.104;14.614;2023-04-20T07:06:07;45;37;
75946;PMS5003;64628;50.104;14.614;2023-04-20T07:08:32;39;39;
75946;PMS5003;64628;50.104;14.614;2023-04-20T07:10:58;39;33;
75946;PMS5003;64628;50.104;14.614;2023-04-20T07:13:23;44;36;
75946;PMS5003;64628;50.104;14.614;2023-04-20T07:15:48;45;38;
75946;PMS5003;64628;50.104;14.614;2023-04-20T07:18:13;49;40;
75946;PMS5003;64628;50.104;14.614;2023-04-20T07:20:38;50;42;
75946;PMS5003;64628;50.104;14.614;2023-04-20T07:23:03;42;35;
75946;PMS5003;64628;50.104;14.614;2023-04-20T07:25:28;41;35;
75946;PMS5003;64628;50.104;14.614;2023-04-20T07:27:54;50;45;
75946;PMS5003;64628;50.104;14.614;2023-04-20T07:30:19;48;44;
75946;PMS5003;64628;50.104;14.614;2023-04-20T07:32:45;41;40;
75946;PMS5003;64628;50.104;14.614;2023-04-20T07:35:10;53;40;
75946;PMS5003;64628;50.104;14.614;2023-04-20T07:37:36;45;40;
75946;PMS5003;64628;50.104;14.614;2023-04-20T07:40:01;48;43;
75946;PMS5003;64628;50.104;14.614;2023-04-20T07:42:27;50;45;
75946;PMS5003;64628;50.104;14.614;2023-04-20T07:44:53;50;42;
75946;PMS5003;64628;50.104;14.614;2023-04-20T07:47:17;51;37;
75946;PMS5003;64628;50.104;14.614;2023-04-20T07:49:43;44;39;
75946;PMS5003;64628;50.104;14.614;2023-04-20T07:52:08;47;36;
75946;PMS5003;64628;50.104;14.614;2023-04-20T07:54:33;48;40;
75946;PMS5003;64628;50.104;14.614;2023-04-20T07:56:59;46;35;
75946;PMS5003;64628;50.104;14.614;2023-04-20T07:59:24;40;34;
75946;PMS5003;64628;50.104;14.614;2023-04-20T08:01:50;51;38;
75946;PMS5003;64628;50.104;14.614;2023-04-20T08:04:16;41;40;
75946;PMS5003;64628;50.104;14.614;2023-04-20T08:06:41;40;38;
75946;PMS5003;64628;50.104;14.614;2023-04-20T08:09:06;47;39;
75946;PMS5003;64628;50.104;14.614;2023-04-20T08:11:32;48;38;
75946;PMS5003;64628;50.104;14.614;2023-04-20T08:13:58;45;37;
75946;PMS5003;64628;50.104;14.614;2023-04-20T08:16:23;44;38;
75946;PMS5003;64628;50.104;14.614;2023-04-20T08:18:49;45;39;
75946;PMS5003;64628;50.104;14.614;2023-04-20T08:21:14;46;39;
75946;PMS5003;64628;50.104;14.614;2023-04-20T08:23:40;49;41;
75946;PMS5003;64628;50.104;14.614;2023-04-20T08:26:05;45;36;
75946;PMS5003;64628;50.104;14.614;2023-04-20T08:28:30;42;36;
75946;PMS5003;64628;50.104;14.614;2023-04-20T08:30:57;38;37;
75946;PMS5003;64628;50.104;14.614;2023-04-20T08:33:23;43;38;
75946;PMS5003;64628;50.104;14.614;2023-04-20T08:35:49;51;39;
75946;PMS5003;64628;50.104;14.614;2023-04-20T08:40:43;39;34;
75946;PMS5003;64628;50.104;14.614;2023-04-20T08:43:03;47;41;
75946;PMS5003;64628;50.104;14.614;2023-04-20T08:45:29;38;33;
75946;PMS5003;64628;50.104;14.614;2023-04-20T08:47:54;43;41;
75946;PMS5003;64628;50.104;14.614;2023-04-20T08:50:20;48;38;
75946;PMS5003;64628;50.104;14.614;2023-04-20T08:52:46;45;37;
75946;PMS5003;64628;50.104;14.614;2023-04-20T08:55:14;37;36;
75946;PMS5003;64628;50.104;14.614;2023-04-20T08:57:36;45;32;
75946;PMS5003;64628;50.104;14.614;2023-04-20T09:00:03;44;41;
75946;PMS5003;64628;50.104;14.614;2023-04-20T09:02:33;51;40;
75946;PMS5003;64628;50.104;14.614;2023-04-20T09:05:00;38;33;
75946;PMS5003;64628;50.104;14.614;2023-04-20T09:07:24;35;33;
75946;PMS5003;64628;50.104;14.614;2023-04-20T09:09:53;37;34;
75946;PMS5003;64628;50.104;14.614;2023-04-20T09:12:15;47;42;
75946;PMS5003;64628;50.104;14.614;2023-04-20T09:14:41;33;33;
75946;PMS5003;64628;50.104;14.614;2023-04-20T09:17:03;42;36;
75946;PMS5003;64628;50.104;14.614;2023-04-20T09:19:27;45;42;
75946;PMS5003;64628;50.104;14.614;2023-04-20T09:21:53;35;32;
75946;PMS5003;64628;50.104;14.614;2023-04-20T09:24:18;38;37;
75946;PMS5003;64628;50.104;14.614;2023-04-20T09:26:43;45;39;
75946;PMS5003;64628;50.104;14.614;2023-04-20T09:31:35;46;35;
75946;PMS5003;64628;50.104;14.614;2023-04-20T09:34:00;52;46;
75946;PMS5003;64628;50.104;14.614;2023-04-20T09:39:01;40;37;
75946;PMS5003;64628;50.104;14.614;2023-04-20T09:41:16;45;40;
75946;PMS5003;64628;50.104;14.614;2023-04-20T09:43:46;42;35;
75946;PMS5003;64628;50.104;14.614;2023-04-20T09:46:07;47;43;
75946;PMS5003;64628;50.104;14.614;2023-04-20T09:48:33;42;37;
75946;PMS5003;64628;50.104;14.614;2023-04-20T09:50:58;42;38;
75946;PMS5003;64628;50.104;14.614;2023-04-20T09:53:23;37;32;
75946;PMS5003;64628;50.104;14.614;2023-04-20T09:55:48;38;36;
75946;PMS5003;64628;50.104;14.614;2023-04-20T09:58:13;36;34;
75946;PMS5003;64628;50.104;14.614;2023-04-20T10:00:40;39;36;
75946;PMS5003;64628;50.104;14.614;2023-04-20T10:03:04;38;34;
75946;PMS5003;64628;50.104;14.614;2023-04-20T10:05:34;51;38;
75946;PMS5003;64628;50.104;14.614;2023-04-20T10:07:59;40;38;
75946;PMS5003;64628;50.104;14.614;2023-04-20T10:10:21;40;38;
75946;PMS5003;64628;50.104;14.614;2023-04-20T10:12:50;40;37;
75946;PMS5003;64628;50.104;14.614;2023-04-20T10:15:10;43;40;
75946;PMS5003;64628;50.104;14.614;2023-04-20T10:17:35;46;41;
75946;PMS5003;64628;50.104;14.614;2023-04-20T10:20:00;41;37;
75946;PMS5003;64628;50.104;14.614;2023-04-20T10:22:27;48;37;
75946;PMS5003;64628;50.104;14.614;2023-04-20T10:24:51;47;43;
75946;PMS5003;64628;50.104;14.614;2023-04-20T10:27:17;42;40;
75946;PMS5003;64628;50.104;14.614;2023-04-20T10:29:42;50;44;
75946;PMS5003;64628;50.104;14.614;2023-04-20T10:32:07;42;39;
75946;PMS5003;64628;50.104;14.614;2023-04-20T10:34:33;44;39;
75946;PMS5003;64628;50.104;14.614;2023-04-20T10:37:06;34;32;
75946;PMS5003;64628;50.104;14.614;2023-04-20T10:39:23;63;60;
75946;PMS5003;64628;50.104;14.614;2023-04-20T10:41:52;47;44;
75946;PMS5003;64628;50.104;14.614;2023-04-20T10:44:14;44;41;
75946;PMS5003;64628;50.104;14.614;2023-04-20T10:46:47;38;35;
75946;PMS5003;64628;50.104;14.614;2023-04-20T10:49:04;43;41;
75946;PMS5003;64628;50.104;14.614;2023-04-20T10:51:29;44;38;
75946;PMS5003;64628;50.104;14.614;2023-04-20T10:53:58;44;41;
75946;PMS5003;64628;50.104;14.614;2023-04-20T10:56:20;39;36;
75946;PMS5003;64628;50.104;14.614;2023-04-20T10:58:46;44;39;
75946;PMS5003;64628;50.104;14.614;2023-04-20T11:01:11;43;40;
75946;PMS5003;64628;50.104;14.614;2023-04-20T11:03:37;49;48;
75946;PMS5003;64628;50.104;14.614;2023-04-20T11:06:03;44;44;
75946;PMS5003;64628;50.104;14.614;2023-04-20T11:08:35;48;42;
75946;PMS5003;64628;50.104;14.614;2023-04-20T11:10:54;45;43;
75946;PMS5003;64628;50.104;14.614;2023-04-20T11:13:19;42;37;
75946;PMS5003;64628;50.104;14.614;2023-04-20T11:15:50;45;41;
75946;PMS5003;64628;50.104;14.614;2023-04-20T11:18:11;46;40;
75946;PMS5003;64628;50.104;14.614;2023-04-20T11:23:02;45;44;
75946;PMS5003;64628;50.104;14.614;2023-04-20T11:25:27;49;43;
75946;PMS5003;64628;50.104;14.614;2023-04-20T11:27:53;44;39;
75946;PMS5003;64628;50.104;14.614;2023-04-20T11:30:18;48;46;
75946;PMS5003;64628;50.104;14.614;2023-04-20T11:32:51;42;41;
75946;PMS5003;64628;50.104;14.614;2023-04-20T11:35:09;52;46;
75946;PMS5003;64628;50.104;14.614;2023-04-20T11:40:00;52;47;
75946;PMS5003;64628;50.104;14.614;2023-04-20T11:42:26;49;43;
75946;PMS5003;64628;50.104;14.614;2023-04-20T11:44:51;48;41;
75946;PMS5003;64628;50.104;14.614;2023-04-20T11:47:16;50;44;
75946;PMS5003;64628;50.104;14.614;2023-04-20T11:49:42;43;42;
75946;PMS5003;64628;50.104;14.614;2023-04-20T11:52:07;49;44;
75946;PMS5003;64628;50.104;14.614;2023-04-20T11:54:32;48;43;
75946;PMS5003;64628;50.104;14.614;2023-04-20T11:56:57;45;43;
75946;PMS5003;64628;50.104;14.614;2023-04-20T11:59:23;52;51;
75946;PMS5003;64628;50.104;14.614;2023-04-20T12:01:49;48;42;
75946;PMS5003;64628;50.104;14.614;2023-04-20T12:04:19;49;38;
75946;PMS5003;64628;50.104;14.614;2023-04-20T12:06:40;46;44;
75946;PMS5003;64628;50.104;14.614;2023-04-20T12:09:05;51;44;
75946;PMS5003;64628;50.104;14.614;2023-04-20T12:11:30;54;45;
75946;PMS5003;64628;50.104;14.614;2023-04-20T12:13:56;47;44;
75946;PMS5003;64628;50.104;14.614;2023-04-20T12:16:26;53;49;
75946;PMS5003;64628;50.104;14.614;2023-04-20T12:18:47;57;51;
75946;PMS5003;64628;50.104;14.614;2023-04-20T12:21:13;55;52;
75946;PMS5003;64628;50.104;14.614;2023-04-20T12:23:43;52;49;
75946;PMS5003;64628;50.104;14.614;2023-04-20T12:26:03;48;46;
75946;PMS5003;64628;50.104;14.614;2023-04-20T12:28:29;41;38;
75946;PMS5003;64628;50.104;14.614;2023-04-20T12:30:54;53;48;
75946;PMS5003;64628;50.104;14.614;2023-04-20T12:33:20;48;46;
75946;PMS5003;64628;50.104;14.614;2023-04-20T12:35:45;44;38;
75946;PMS5003;64628;50.104;14.614;2023-04-20T12:38:11;52;48;
75946;PMS5003;64628;50.104;14.614;2023-04-20T12:40:37;48;45;
75946;PMS5003;64628;50.104;14.614;2023-04-20T12:43:02;43;40;
75946;PMS5003;64628;50.104;14.614;2023-04-20T12:45:27;43;39;
75946;PMS5003;64628;50.104;14.614;2023-04-20T12:47:53;41;34;
75946;PMS5003;64628;50.104;14.614;2023-04-20T12:50:18;40;36;
75946;PMS5003;64628;50.104;14.614;2023-04-20T12:52:44;36;32;
75946;PMS5003;64628;50.104;14.614;2023-04-20T12:55:09;40;39;
75946;PMS5003;64628;50.104;14.614;2023-04-20T12:57:34;37;34;
75946;PMS5003;64628;50.104;14.614;2023-04-20T13:00:00;43;39;
75946;PMS5003;64628;50.104;14.614;2023-04-20T13:02:25;34;32;
75946;PMS5003;64628;50.104;14.614;2023-04-20T13:04:51;42;37;
75946;PMS5003;64628;50.104;14.614;2023-04-20T13:07:16;32;31;
75946;PMS5003;64628;50.104;14.614;2023-04-20T13:09:41;36;35;
75946;PMS5003;64628;50.104;14.614;2023-04-20T13:12:07;32;28;
75946;PMS5003;64628;50.104;14.614;2023-04-20T13:14:33;32;29;
75946;PMS5003;64628;50.104;14.614;2023-04-20T13:16:58;32;31;
75946;PMS5003;64628;50.104;14.614;2023-04-20T13:19:29;34;33;
75946;PMS5003;64628;50.104;14.614;2023-04-20T13:21:49;37;31;
75946;PMS5003;64628;50.104;14.614;2023-04-20T13:24:21;37;36;
75946;PMS5003;64628;50.104;14.614;2023-04-20T13:26:41;36;34;
75946;PMS5003;64628;50.104;14.614;2023-04-20T13:29:06;32;31;
75946;PMS5003;64628;50.104;14.614;2023-04-20T13:31:32;43;39;
75946;PMS5003;64628;50.104;14.614;2023-04-20T13:33:57;41;34;
75946;PMS5003;64628;50.104;14.614;2023-04-20T13:36:23;28;28;
75946;PMS5003;64628;50.104;14.614;2023-04-20T13:38:48;37;32;
75946;PMS5003;64628;50.104;14.614;2023-04-20T13:41:15;34;33;
75946;PMS5003;64628;50.104;14.614;2023-04-20T13:43:39;41;32;
75946;PMS5003;64628;50.104;14.614;2023-04-20T13:46:10;33;31;
75946;PMS5003;64628;50.104;14.614;2023-04-20T13:48:30;36;32;
75946;PMS5003;64628;50.104;14.614;2023-04-20T13:50:55;26;26;
75946;PMS5003;64628;50.104;14.614;2023-04-20T13:53:21;29;26;
75946;PMS5003;64628;50.104;14.614;2023-04-20T13:55:46;29;26;
75946;PMS5003;64628;50.104;14.614;2023-04-20T13:58:12;30;27;
75946;PMS5003;64628;50.104;14.614;2023-04-20T14:00:37;31;25;
75946;PMS5003;64628;50.104;14.614;2023-04-20T14:03:02;28;24;
75946;PMS5003;64628;50.104;14.614;2023-04-20T14:05:28;32;28;
75946;PMS5003;64628;50.104;14.614;2023-04-20T14:07:54;31;30;
75946;PMS5003;64628;50.104;14.614;2023-04-20T14:10:19;32;29;
75946;PMS5003;64628;50.104;14.614;2023-04-20T14:12:50;33;29;
75946;PMS5003;64628;50.104;14.614;2023-04-20T14:15:10;36;30;
75946;PMS5003;64628;50.104;14.614;2023-04-20T14:17:36;29;27;
75946;PMS5003;64628;50.104;14.614;2023-04-20T14:20:00;32;30;
75946;PMS5003;64628;50.104;14.614;2023-04-20T14:22:25;28;24;
75946;PMS5003;64628;50.104;14.614;2023-04-20T14:24:56;29;24;
75946;PMS5003;64628;50.104;14.614;2023-04-20T14:27:16;30;29;
75946;PMS5003;64628;50.104;14.614;2023-04-20T14:29:41;26;26;
75946;PMS5003;64628;50.104;14.614;2023-04-20T14:32:07;33;30;
75946;PMS5003;64628;50.104;14.614;2023-04-20T14:36:58;27;24;
75946;PMS5003;64628;50.104;14.614;2023-04-20T14:39:23;21;19;
75946;PMS5003;64628;50.104;14.614;2023-04-20T14:41:49;25;24;
75946;PMS5003;64628;50.104;14.614;2023-04-20T14:44:16;23;20;
75946;PMS5003;64628;50.104;14.614;2023-04-20T14:46:45;19;19;
75946;PMS5003;64628;50.104;14.614;2023-04-20T14:49:10;20;19;
75946;PMS5003;64628;50.104;14.614;2023-04-20T14:51:30;21;20;
75946;PMS5003;64628;50.104;14.614;2023-04-20T14:53:55;21;20;
75946;PMS5003;64628;50.104;14.614;2023-04-20T14:56:21;25;24;
75946;PMS5003;64628;50.104;14.614;2023-04-20T14:58:46;18;17;
75946;PMS5003;64628;50.104;14.614;2023-04-20T15:01:12;18;18;
75946;PMS5003;64628;50.104;14.614;2023-04-20T15:03:37;20;19;
75946;PMS5003;64628;50.104;14.614;2023-04-20T15:06:08;26;23;
75946;PMS5003;64628;50.104;14.614;2023-04-20T15:08:28;23;20;
75946;PMS5003;64628;50.104;14.614;2023-04-20T15:10:53;19;19;
75946;PMS5003;64628;50.104;14.614;2023-04-20T15:13:24;19;18;
75946;PMS5003;64628;50.104;14.614;2023-04-20T15:15:44;22;20;
75946;PMS5003;64628;50.104;14.614;2023-04-20T15:18:09;22;19;
75946;PMS5003;64628;50.104;14.614;2023-04-20T15:20:35;21;19;
75946;PMS5003;64628;50.104;14.614;2023-04-20T15:23:00;18;17;
75946;PMS5003;64628;50.104;14.614;2023-04-20T15:25:31;18;18;
75946;PMS5003;64628;50.104;14.614;2023-04-20T15:27:51;20;20;
75946;PMS5003;64628;50.104;14.614;2023-04-20T15:30:15;19;16;
75946;PMS5003;64628;50.104;14.614;2023-04-20T15:32:41;15;15;
75946;PMS5003;64628;50.104;14.614;2023-04-20T15:35:06;22;20;
75946;PMS5003;64628;50.104;14.614;2023-04-20T15:37:32;18;15;
75946;PMS5003;64628;50.104;14.614;2023-04-20T15:39:57;22;19;
75946;PMS5003;64628;50.104;14.614;2023-04-20T15:42:23;17;17;
75946;PMS5003;64628;50.104;14.614;2023-04-20T15:44:48;17;15;
75946;PMS5003;64628;50.104;14.614;2023-04-20T15:47:13;19;18;
75946;PMS5003;64628;50.104;14.614;2023-04-20T15:49:38;18;15;
75946;PMS5003;64628;50.104;14.614;2023-04-20T15:52:04;24;20;
75946;PMS5003;64628;50.104;14.614;2023-04-20T15:54:29;14;13;
75946;PMS5003;64628;50.104;14.614;2023-04-20T15:56:54;18;17;
75946;PMS5003;64628;50.104;14.614;2023-04-20T15:59:19;16;15;
75946;PMS5003;64628;50.104;14.614;2023-04-20T16:01:46;12;11;
75946;PMS5003;64628;50.104;14.614;2023-04-20T16:04:18;13;13;
75946;PMS5003;64628;50.104;14.614;2023-04-20T16:09:02;17;16;